Wiscasset, Maine
Current Conditions -  °F | °C
As of 11:10 PM on Wednesday 26 Nov 2014 (Local Time) from KIWI Reporting Station
Light Snow Light Snow  
Wind Chill: 26°   Ceiling: 800
Heat Index: 32°   Visibility: 0.75mi
Dew Point: 31°   Wind: 7mph
Humidity: 96%   Direction: NA
Pressure: 29.76"   Gusts: NA
Location:  44°N, 69.66°W
Report Text: KIWI 270410Z AUTO VRB06KT 3/4SM -SN BR OVC008 00/M01 A2976 RMK AO2 P0003 T00001006
Loading
Personal Weather Stations






























Interactive Weather Map New forecast layout! Learn more

10-Day Weather Forecast

Advertisements
Track Severe Weather on mobile